createdAt,value
2023-03-08T00:01:54.440Z,80.41
2023-03-08T00:04:25.382Z,80.40
2023-03-08T00:06:55.398Z,80.38
2023-03-08T00:09:26.173Z,80.36
2023-03-08T00:11:56.174Z,80.33
2023-03-08T00:14:26.737Z,80.37
2023-03-08T00:16:58.573Z,80.48
2023-03-08T00:19:28.271Z,80.54
2023-03-08T00:21:57.126Z,80.61
2023-03-08T00:24:27.929Z,80.75
2023-03-08T00:26:59.077Z,80.85
2023-03-08T00:29:27.921Z,81.03
2023-03-08T00:31:59.019Z,81.21
2023-03-08T00:34:28.119Z,81.31
2023-03-08T00:36:59.849Z,81.44
2023-03-08T00:39:29.697Z,81.56
2023-03-08T00:42:00.843Z,81.70
2023-03-08T00:44:31.690Z,81.88
2023-03-08T00:47:00.573Z,81.95
2023-03-08T00:49:30.245Z,82.15
2023-03-08T00:52:00.317Z,82.40
2023-03-08T00:54:30.818Z,82.66
2023-03-08T00:57:00.430Z,82.89
2023-03-08T00:59:31.173Z,83.01
2023-03-08T01:02:01.494Z,83.05
2023-03-08T01:04:34.407Z,83.24
2023-03-08T01:07:04.523Z,83.28
2023-03-08T01:09:35.583Z,83.32
2023-03-08T01:12:06.087Z,83.38
2023-03-08T01:14:37.752Z,83.43
2023-03-08T01:17:07.778Z,83.53
2023-03-08T01:19:39.135Z,83.66
2023-03-08T01:22:08.864Z,83.74
2023-03-08T01:24:38.357Z,83.64
2023-03-08T01:27:09.500Z,83.56
2023-03-08T01:29:38.730Z,83.41
2023-03-08T01:32:09.914Z,83.21
2023-03-08T01:34:42.494Z,83.05
2023-03-08T01:37:11.318Z,82.83
2023-03-08T01:39:40.469Z,82.68
2023-03-08T01:42:09.947Z,82.54
2023-03-08T01:44:57.499Z,82.32
2023-03-08T01:47:29.370Z,82.19
2023-03-08T01:50:07.968Z,82.04
2023-03-08T01:52:43.164Z,81.98
2023-03-08T01:55:14.804Z,81.90
2023-03-08T01:57:55.805Z,81.79
2023-03-08T02:00:28.035Z,81.75
2023-03-08T02:03:07.406Z,81.61
2023-03-08T02:05:39.518Z,81.60
2023-03-08T02:08:10.465Z,81.58
2023-03-08T02:10:42.481Z,81.43
2023-03-08T02:13:12.957Z,81.33
2023-03-08T02:15:46.568Z,81.35
2023-03-08T02:18:17.746Z,81.38
2023-03-08T02:20:48.770Z,81.41
2023-03-08T02:23:24.702Z,81.38
2023-03-08T02:26:03.779Z,81.24
2023-03-08T02:28:35.434Z,81.18
2023-03-08T02:31:04.878Z,81.31
2023-03-08T02:33:35.259Z,81.40
2023-03-08T02:36:05.362Z,81.51
2023-03-08T02:38:35.630Z,81.56
2023-03-08T02:41:05.013Z,81.61
2023-03-08T02:43:33.788Z,81.64
2023-03-08T02:46:02.901Z,81.66
2023-03-08T02:48:34.558Z,81.73
2023-03-08T02:51:03.336Z,81.85
2023-03-08T02:53:34.469Z,81.86
2023-03-08T02:56:04.608Z,81.88
2023-03-08T02:58:35.802Z,81.95
2023-03-08T03:01:13.062Z,82.00
2023-03-08T03:03:43.314Z,82.07
2023-03-08T03:06:19.148Z,82.15
2023-03-08T03:08:51.123Z,82.22
2023-03-08T03:11:23.054Z,82.36
2023-03-08T03:13:59.492Z,82.35
2023-03-08T03:16:31.257Z,82.27
2023-03-08T03:19:00.598Z,82.18
2023-03-08T03:21:32.147Z,82.12
2023-03-08T03:24:02.455Z,82.01
2023-03-08T03:26:39.137Z,81.85
2023-03-08T03:29:08.488Z,81.68
2023-03-08T03:31:39.557Z,81.52
2023-03-08T03:34:08.880Z,81.34
2023-03-08T03:36:40.693Z,81.26
2023-03-08T03:39:09.703Z,81.13
2023-03-08T03:41:40.032Z,80.96
2023-03-08T03:44:11.199Z,80.73
2023-03-08T03:46:41.859Z,80.64
2023-03-08T03:49:11.735Z,80.51
2023-03-08T03:51:42.400Z,80.40
2023-03-08T03:54:13.583Z,80.30
2023-03-08T03:56:43.764Z,80.16
2023-03-08T03:59:12.704Z,80.07
2023-03-08T04:01:43.566Z,79.97
2023-03-08T04:04:18.162Z,79.83
2023-03-08T04:06:48.353Z,79.72
2023-03-08T04:09:19.974Z,79.55
2023-03-08T04:11:51.062Z,79.47
2023-03-08T04:14:23.022Z,79.34
2023-03-08T04:16:52.634Z,79.25
2023-03-08T04:19:26.753Z,79.18
2023-03-08T04:21:57.822Z,79.11
2023-03-08T04:24:29.762Z,79.00
2023-03-08T04:27:01.002Z,79.02
2023-03-08T04:29:32.153Z,79.01
2023-03-08T04:32:01.568Z,79.00
2023-03-08T04:34:33.892Z,78.91
2023-03-08T04:37:05.348Z,78.83
2023-03-08T04:39:37.996Z,78.77
2023-03-08T04:42:07.392Z,78.84
2023-03-08T04:44:38.401Z,78.89
2023-03-08T04:47:09.795Z,78.87
2023-03-08T04:49:47.089Z,78.74
2023-03-08T04:52:15.965Z,78.76
2023-03-08T04:54:45.550Z,78.76
2023-03-08T04:57:23.713Z,78.81
2023-03-08T05:00:01.045Z,78.84
2023-03-08T05:02:34.338Z,78.87
2023-03-08T05:05:05.288Z,78.80
2023-03-08T05:07:35.931Z,78.67
2023-03-08T05:10:06.410Z,78.59
2023-03-08T05:12:36.480Z,78.50
2023-03-08T05:15:07.485Z,78.40
2023-03-08T05:17:38.494Z,78.38
2023-03-08T05:20:10.772Z,78.33
2023-03-08T05:22:57.214Z,78.23
2023-03-08T05:25:14.095Z,78.16
2023-03-08T05:27:48.508Z,78.04
2023-03-08T05:30:19.503Z,77.90
2023-03-08T05:32:49.488Z,77.88
2023-03-08T05:35:19.011Z,77.89
2023-03-08T05:37:48.553Z,77.77
2023-03-08T05:40:20.326Z,77.75
2023-03-08T05:42:49.754Z,77.78
2023-03-08T05:45:20.289Z,77.61
2023-03-08T05:47:50.798Z,77.49
2023-03-08T05:50:20.958Z,77.42
2023-03-08T05:52:52.172Z,77.21
2023-03-08T05:55:24.417Z,77.06
2023-03-08T05:57:55.804Z,76.92
2023-03-08T06:00:28.197Z,76.87
2023-03-08T06:03:04.189Z,76.73
2023-03-08T06:05:38.351Z,76.55
2023-03-08T06:08:10.716Z,76.51
2023-03-08T06:10:40.394Z,76.35
2023-03-08T06:13:11.232Z,76.15
2023-03-08T06:15:40.068Z,75.93
2023-03-08T06:18:10.274Z,75.92
2023-03-08T06:20:41.426Z,75.81
2023-03-08T06:23:11.959Z,75.68
2023-03-08T06:25:44.380Z,75.65
2023-03-08T06:28:17.019Z,75.64
2023-03-08T06:30:52.156Z,75.54
2023-03-08T06:33:25.792Z,75.50
2023-03-08T06:36:08.140Z,75.39
2023-03-08T06:38:41.387Z,75.37
2023-03-08T06:41:12.567Z,75.28
2023-03-08T06:43:43.626Z,75.08
2023-03-08T06:46:17.007Z,75.02
2023-03-08T06:48:47.566Z,74.98
2023-03-08T06:51:30.135Z,74.86
2023-03-08T06:54:07.896Z,74.74
2023-03-08T06:56:43.762Z,74.58
2023-03-08T06:59:15.138Z,74.44
2023-03-08T07:01:45.377Z,74.39
2023-03-08T07:04:21.749Z,73.87
2023-03-08T07:06:52.208Z,73.65
2023-03-08T07:09:22.176Z,73.62
2023-03-08T07:11:52.244Z,73.55
2023-03-08T07:14:22.119Z,73.27
2023-03-08T07:16:53.006Z,73.09
2023-03-08T07:19:22.148Z,72.48
2023-03-08T07:21:56.614Z,72.37
2023-03-08T07:24:28.886Z,72.06
2023-03-08T07:27:02.814Z,71.72
2023-03-08T07:29:34.194Z,71.34
2023-03-08T07:32:09.230Z,71.10
2023-03-08T07:34:39.674Z,70.85
2023-03-08T07:37:13.401Z,70.06
2023-03-08T07:39:44.261Z,70.10
2023-03-08T07:42:14.530Z,70.02
2023-03-08T07:44:51.039Z,69.84
2023-03-08T07:47:23.129Z,69.44
2023-03-08T07:49:53.000Z,69.16
2023-03-08T07:52:29.710Z,68.86
2023-03-08T07:54:58.633Z,68.57
2023-03-08T07:57:27.952Z,68.42
2023-03-08T07:59:57.347Z,68.34
2023-03-08T08:02:28.166Z,68.06
2023-03-08T08:05:04.402Z,67.67
2023-03-08T08:07:34.536Z,67.51
2023-03-08T08:10:08.316Z,67.26
2023-03-08T08:12:40.717Z,67.19
2023-03-08T08:15:12.044Z,67.17
2023-03-08T08:17:42.790Z,66.74
2023-03-08T08:20:23.109Z,66.33
2023-03-08T08:22:54.464Z,66.34
2023-03-08T08:25:25.796Z,66.01
2023-03-08T08:27:57.058Z,65.69
2023-03-08T08:30:30.473Z,65.22
2023-03-08T08:33:07.110Z,64.99
2023-03-08T08:35:43.326Z,64.89
2023-03-08T08:38:10.012Z,64.64
2023-03-08T08:40:42.760Z,64.68
2023-03-08T08:43:14.195Z,64.30
2023-03-08T08:45:53.086Z,63.81
2023-03-08T08:48:26.083Z,63.71
2023-03-08T08:50:58.611Z,63.62
2023-03-08T08:53:32.565Z,63.37
2023-03-08T08:56:26.630Z,63.16
2023-03-08T08:58:50.520Z,63.18
2023-03-08T09:01:24.132Z,63.11
2023-03-08T09:03:54.693Z,63.19
2023-03-08T09:06:25.358Z,63.33
2023-03-08T09:08:58.878Z,63.15
2023-03-08T09:11:30.308Z,62.94
2023-03-08T09:14:00.455Z,62.78
2023-03-08T09:16:32.457Z,62.55
2023-03-08T09:19:03.899Z,62.46
2023-03-08T09:21:34.753Z,62.48
2023-03-08T09:24:06.586Z,62.39
2023-03-08T09:26:35.940Z,62.41
2023-03-08T09:29:05.313Z,62.09
2023-03-08T09:31:37.049Z,61.78
2023-03-08T09:34:08.988Z,61.55
2023-03-08T09:36:40.798Z,61.30
2023-03-08T09:39:13.234Z,61.54
2023-03-08T09:41:49.604Z,62.27
2023-03-08T09:44:52.400Z,63.23
2023-03-08T09:47:50.192Z,62.94
2023-03-08T09:50:46.432Z,63.04
2023-03-08T09:53:36.340Z,62.82
2023-03-08T09:56:37.398Z,62.56
2023-03-08T09:59:13.698Z,62.52
2023-03-08T10:01:51.666Z,62.72
2023-03-08T10:05:11.934Z,62.47
2023-03-08T10:07:46.269Z,62.37
2023-03-08T10:10:26.759Z,62.73
2023-03-08T10:13:22.520Z,62.89
2023-03-08T10:15:54.782Z,62.51
2023-03-08T10:18:53.423Z,62.81
2023-03-08T10:21:25.522Z,63.73
2023-03-08T10:24:26.953Z,65.32
2023-03-08T10:27:14.805Z,65.80
2023-03-08T10:29:55.374Z,66.43
2023-03-08T10:32:25.732Z,66.84
2023-03-08T10:35:03.592Z,67.16
2023-03-08T10:37:36.161Z,67.50
2023-03-08T10:40:19.874Z,67.05
2023-03-08T10:43:01.033Z,67.17
2023-03-08T10:45:31.139Z,67.53
2023-03-08T10:48:03.637Z,68.10
2023-03-08T10:50:36.465Z,68.90
2023-03-08T10:53:18.623Z,69.52
2023-03-08T10:55:52.241Z,69.69
2023-03-08T10:58:35.047Z,70.30
2023-03-08T11:01:09.336Z,70.84
2023-03-08T11:03:39.296Z,71.52
2023-03-08T11:06:16.855Z,71.84
2023-03-08T11:08:57.310Z,72.26
2023-03-08T11:11:28.364Z,72.57
2023-03-08T11:14:00.287Z,73.17
2023-03-08T11:16:47.508Z,73.40
2023-03-08T11:19:41.324Z,72.62
2023-03-08T11:22:28.266Z,72.84
2023-03-08T11:25:24.269Z,73.44
2023-03-08T11:28:08.344Z,74.40
2023-03-08T11:30:59.841Z,75.23
2023-03-08T11:34:04.499Z,75.82
2023-03-08T11:36:43.012Z,76.53
2023-03-08T11:39:53.241Z,77.34
2023-03-08T11:42:53.376Z,77.75
2023-03-08T11:45:59.010Z,77.95
2023-03-08T11:49:11.003Z,78.41
2023-03-08T11:52:03.743Z,81.38
2023-03-08T11:54:43.835Z,80.56
2023-03-08T11:57:17.135Z,80.66
2023-03-08T12:00:04.482Z,79.65
2023-03-08T12:02:47.927Z,77.08
2023-03-08T12:05:30.242Z,74.73
2023-03-08T12:08:37.806Z,73.37
2023-03-08T12:11:30.018Z,73.79
2023-03-08T12:14:32.218Z,72.97
2023-03-08T12:17:33.310Z,71.73
2023-03-08T12:20:06.516Z,71.63
2023-03-08T12:22:40.976Z,70.31
2023-03-08T12:25:42.033Z,70.11
2023-03-08T12:28:25.651Z,69.94
2023-03-08T12:31:29.732Z,70.42
2023-03-08T12:34:01.242Z,70.79
2023-03-08T12:36:42.762Z,71.70
2023-03-08T12:39:33.816Z,71.71
2023-03-08T12:42:17.487Z,71.85
2023-03-08T12:44:46.565Z,72.36
2023-03-08T12:47:22.202Z,72.44
2023-03-08T12:49:56.246Z,72.20
2023-03-08T12:52:34.183Z,71.88
2023-03-08T12:57:54.085Z,71.84
2023-03-08T13:00:35.131Z,71.68
2023-03-08T13:03:18.370Z,70.76
2023-03-08T13:05:50.330Z,70.74
2023-03-08T13:08:34.434Z,70.94
2023-03-08T13:11:10.729Z,70.92
2023-03-08T13:14:01.589Z,71.26
2023-03-08T13:16:36.576Z,71.13
2023-03-08T13:19:21.095Z,70.36
2023-03-08T13:22:11.635Z,69.22
2023-03-08T13:24:54.825Z,67.78
2023-03-08T13:27:55.170Z,67.20
2023-03-08T13:30:36.455Z,66.79
2023-03-08T13:33:20.636Z,67.40
2023-03-08T13:36:01.326Z,67.10
2023-03-08T13:38:33.430Z,66.67
2023-03-08T13:41:02.959Z,65.93
2023-03-08T13:43:34.132Z,65.83
2023-03-08T13:46:06.262Z,65.62
2023-03-08T13:48:44.661Z,64.94
2023-03-08T13:51:19.020Z,64.88
2023-03-08T13:53:48.057Z,65.01
2023-03-08T13:56:28.404Z,64.31
2023-03-08T13:59:20.461Z,64.19
2023-03-08T14:01:51.621Z,63.23
2023-03-08T14:04:29.170Z,62.93
2023-03-08T14:07:03.438Z,62.80
2023-03-08T14:09:35.740Z,62.94
2023-03-08T14:12:07.657Z,63.31
2023-03-08T14:14:40.497Z,63.59
2023-03-08T14:17:26.902Z,63.62
2023-03-08T14:19:59.411Z,63.18
2023-03-08T14:22:39.254Z,62.70
2023-03-08T14:25:03.579Z,62.14
2023-03-08T14:27:41.438Z,61.95
2023-03-08T14:30:20.770Z,62.49
2023-03-08T14:33:08.226Z,62.33
2023-03-08T14:35:45.268Z,62.12
2023-03-08T14:38:34.194Z,62.15
2023-03-08T14:41:10.954Z,62.22
2023-03-08T14:43:40.177Z,61.93
2023-03-08T14:46:12.965Z,62.11
2023-03-08T14:48:43.884Z,62.17
2023-03-08T14:51:23.863Z,62.37
2023-03-08T14:54:02.096Z,62.46
2023-03-08T14:56:32.643Z,61.94
2023-03-08T14:59:04.927Z,62.10
2023-03-08T15:01:37.084Z,61.73
2023-03-08T15:04:25.657Z,61.96
2023-03-08T15:07:00.731Z,62.02
2023-03-08T15:09:32.158Z,61.91
2023-03-08T15:12:01.521Z,62.10
2023-03-08T15:14:32.350Z,62.13
2023-03-08T15:17:03.180Z,62.55
2023-03-08T15:19:33.550Z,62.84
2023-03-08T15:22:17.695Z,63.54
2023-03-08T15:24:55.729Z,63.50
2023-03-08T15:27:26.595Z,63.41
2023-03-08T15:29:57.708Z,63.50
2023-03-08T15:32:28.389Z,63.64
2023-03-08T15:34:57.745Z,63.83
2023-03-08T15:37:27.045Z,63.95
2023-03-08T15:39:56.612Z,64.15
2023-03-08T15:42:32.032Z,64.23
2023-03-08T15:45:01.821Z,64.28
2023-03-08T15:47:31.458Z,64.65
2023-03-08T15:50:02.017Z,64.60
2023-03-08T15:52:33.108Z,64.41
2023-03-08T15:55:03.731Z,64.75
2023-03-08T15:57:34.026Z,64.73
2023-03-08T16:00:06.386Z,64.66
2023-03-08T16:02:37.730Z,65.16
2023-03-08T16:05:10.330Z,65.04
2023-03-08T16:07:43.345Z,65.01
2023-03-08T16:10:15.472Z,64.53
2023-03-08T16:12:51.281Z,64.45
2023-03-08T16:15:22.010Z,64.48
2023-03-08T16:17:54.748Z,64.53
2023-03-08T16:20:25.671Z,64.53
2023-03-08T16:22:56.312Z,63.99
2023-03-08T16:25:27.405Z,63.96
2023-03-08T16:27:58.072Z,63.45
2023-03-08T16:30:27.590Z,63.04
2023-03-08T16:32:59.074Z,62.94
2023-03-08T16:35:28.806Z,62.93
2023-03-08T16:38:00.754Z,62.78
2023-03-08T16:40:33.918Z,62.87
2023-03-08T16:43:04.247Z,62.85
2023-03-08T16:45:33.380Z,62.83
2023-03-08T16:48:02.853Z,63.11
2023-03-08T16:50:33.929Z,62.96
2023-03-08T16:53:03.906Z,63.05
2023-03-08T16:55:36.644Z,63.23
2023-03-08T16:58:06.559Z,63.28
2023-03-08T17:00:38.031Z,63.50
2023-03-08T17:03:08.472Z,63.71
2023-03-08T17:05:44.352Z,63.91
2023-03-08T17:08:13.814Z,64.16
2023-03-08T17:10:45.655Z,64.33
2023-03-08T17:13:16.549Z,64.55
2023-03-08T17:15:47.539Z,64.74
2023-03-08T17:18:18.122Z,65.02
2023-03-08T17:20:47.272Z,65.28
2023-03-08T17:23:18.497Z,65.53
2023-03-08T17:25:47.926Z,65.72
2023-03-08T17:28:17.022Z,65.90
2023-03-08T17:30:45.833Z,65.98
2023-03-08T17:33:16.469Z,66.10
2023-03-08T17:35:47.636Z,66.24
2023-03-08T17:38:18.553Z,66.46
2023-03-08T17:40:48.167Z,66.47
2023-03-08T17:43:19.872Z,66.57
2023-03-08T17:46:05.387Z,66.68
2023-03-08T17:48:36.527Z,66.81
2023-03-08T17:51:10.825Z,67.03
2023-03-08T17:53:41.871Z,67.16
2023-03-08T17:56:21.538Z,67.26
2023-03-08T17:58:53.117Z,67.41
2023-03-08T18:01:25.636Z,67.53
2023-03-08T18:03:54.918Z,67.75
2023-03-08T18:06:41.086Z,67.91
2023-03-08T18:09:15.210Z,68.24
2023-03-08T18:11:47.618Z,68.67
2023-03-08T18:14:16.910Z,68.98
2023-03-08T18:16:46.660Z,69.30
2023-03-08T18:19:17.311Z,69.62
2023-03-08T18:21:49.857Z,69.87
2023-03-08T18:24:18.516Z,70.08
2023-03-08T18:26:48.209Z,70.44
2023-03-08T18:29:17.882Z,70.75
2023-03-08T18:31:47.047Z,71.04
2023-03-08T18:34:17.040Z,71.41
2023-03-08T18:36:46.705Z,71.69
2023-03-08T18:39:17.909Z,71.86
2023-03-08T18:41:47.172Z,72.07
2023-03-08T18:44:17.398Z,72.24
2023-03-08T18:46:47.836Z,72.41
2023-03-08T18:49:17.109Z,72.62
2023-03-08T18:51:47.365Z,72.78
2023-03-08T18:54:20.733Z,73.00
2023-03-08T18:56:52.570Z,73.25
2023-03-08T18:59:22.670Z,73.52
2023-03-08T19:01:57.378Z,73.80
2023-03-08T19:04:28.173Z,74.11
2023-03-08T19:06:57.783Z,74.39
2023-03-08T19:09:30.324Z,74.53
2023-03-08T19:11:59.922Z,74.54
2023-03-08T19:14:30.644Z,74.45
2023-03-08T19:17:02.483Z,74.36
2023-03-08T19:19:31.405Z,74.48
2023-03-08T19:22:00.381Z,74.62
2023-03-08T19:24:35.290Z,74.83
2023-03-08T19:27:06.352Z,75.11
2023-03-08T19:29:36.357Z,75.34
2023-03-08T19:32:07.011Z,75.57
2023-03-08T19:34:41.121Z,75.86
2023-03-08T19:37:12.991Z,76.23
2023-03-08T19:39:43.612Z,76.54
2023-03-08T19:42:16.113Z,76.66
2023-03-08T19:44:51.731Z,76.83
2023-03-08T19:47:24.193Z,77.03
2023-03-08T19:49:55.149Z,77.09
2023-03-08T19:52:24.646Z,77.28
2023-03-08T19:54:55.568Z,77.47
2023-03-08T19:57:25.721Z,77.78
2023-03-08T19:59:57.670Z,77.89
2023-03-08T20:02:27.311Z,78.04
2023-03-08T20:04:56.692Z,78.22
2023-03-08T20:07:26.327Z,78.37
2023-03-08T20:09:58.844Z,78.50
2023-03-08T20:12:31.074Z,78.59
2023-03-08T20:15:00.748Z,78.57
2023-03-08T20:17:32.006Z,78.72
2023-03-08T20:20:02.238Z,78.78
2023-03-08T20:22:33.212Z,78.85
2023-03-08T20:25:04.821Z,79.02
2023-03-08T20:27:40.339Z,79.14
2023-03-08T20:30:14.985Z,79.28
2023-03-08T20:32:46.284Z,79.43
2023-03-08T20:35:16.137Z,79.57
2023-03-08T20:37:47.804Z,79.77
2023-03-08T20:40:20.302Z,79.99
2023-03-08T20:42:52.330Z,80.15
2023-03-08T20:45:23.631Z,80.35
2023-03-08T20:47:54.825Z,80.49
2023-03-08T20:50:25.913Z,80.58
2023-03-08T20:52:55.525Z,80.55
2023-03-08T20:55:24.432Z,80.50
2023-03-08T20:57:55.031Z,80.60
2023-03-08T21:00:26.101Z,80.80
2023-03-08T21:02:56.029Z,80.95
2023-03-08T21:05:24.872Z,80.98
2023-03-08T21:07:57.052Z,80.96
2023-03-08T21:10:34.043Z,81.08
2023-03-08T21:13:06.399Z,81.11
2023-03-08T21:15:36.251Z,81.31
2023-03-08T21:18:14.069Z,81.43
2023-03-08T21:20:44.399Z,81.45
2023-03-08T21:23:15.969Z,81.57
2023-03-08T21:25:44.791Z,81.70
2023-03-08T21:28:15.530Z,81.71
2023-03-08T21:30:47.543Z,81.87
2023-03-08T21:33:18.462Z,82.06
2023-03-08T21:35:49.187Z,82.16
2023-03-08T21:38:18.876Z,82.20
2023-03-08T21:40:48.315Z,82.16
2023-03-08T21:43:19.034Z,82.21
2023-03-08T21:45:48.878Z,82.25
2023-03-08T21:48:19.681Z,82.27
2023-03-08T21:50:52.252Z,82.16
2023-03-08T21:53:22.785Z,82.29
2023-03-08T21:55:52.918Z,82.33
2023-03-08T21:58:23.848Z,82.49
2023-03-08T22:00:54.068Z,82.55
2023-03-08T22:03:25.669Z,82.72
2023-03-08T22:05:54.761Z,82.86
2023-03-08T22:08:24.967Z,82.96
2023-03-08T22:10:56.033Z,82.94
2023-03-08T22:13:26.486Z,82.90
2023-03-08T22:15:55.549Z,82.97
2023-03-08T22:18:26.976Z,82.86
2023-03-08T22:20:56.962Z,82.84
2023-03-08T22:23:26.792Z,82.87
2023-03-08T22:25:55.679Z,82.96
2023-03-08T22:28:27.586Z,83.09
2023-03-08T22:30:57.740Z,83.17
2023-03-08T22:33:27.751Z,83.32
2023-03-08T22:35:57.674Z,83.44
2023-03-08T22:38:27.200Z,83.56
2023-03-08T22:40:56.792Z,83.62
2023-03-08T22:43:27.672Z,83.70
2023-03-08T22:46:09.030Z,83.84
2023-03-08T22:48:40.286Z,83.95
2023-03-08T22:51:11.473Z,84.09
2023-03-08T22:53:42.224Z,84.17
2023-03-08T22:56:25.801Z,84.16
2023-03-08T22:58:54.926Z,84.20
2023-03-08T23:01:25.148Z,84.17
2023-03-08T23:03:56.580Z,84.23
2023-03-08T23:11:04.165Z,84.42
2023-03-08T23:13:34.735Z,84.61
2023-03-08T23:20:49.243Z,84.66
2023-03-08T23:23:19.003Z,84.68
2023-03-08T23:25:48.901Z,84.72
2023-03-08T23:28:19.348Z,84.80
2023-03-08T23:30:51.496Z,84.89
2023-03-08T23:33:21.774Z,84.88
2023-03-08T23:35:52.063Z,84.90
2023-03-08T23:38:21.843Z,84.89
2023-03-08T23:40:50.940Z,84.86
2023-03-08T23:43:21.459Z,84.77
2023-03-08T23:45:51.897Z,84.82
2023-03-08T23:48:22.686Z,84.83
2023-03-08T23:50:52.297Z,84.89
2023-03-08T23:53:21.316Z,84.98
2023-03-08T23:55:50.518Z,85.02
2023-03-08T23:58:20.118Z,85.07
